Time;durP1;ratioP1;P1;durP2;ratioP2;P2;SDS_P1;SDS_P2;PMS_P1;PMS_P2;Temp;Humidity;BMP_temperature;BMP_pressure;BME280_temperature;BME280_humidity;BME280_pressure;Samples;Min_cycle;Max_cycle;Signal;HPM_P1;HPM_P2
2024/03/07 00:04:18;;;;;;;32.58;26.35;;;;;;;7.52;100.00;102450.50;5285035;28;20043;-75
2024/03/07 00:06:50;;;;;;;35.25;27.77;;;;;;;7.49;100.00;102453.22;5279478;28;20200;-75
2024/03/07 00:09:24;;;;;;;38.65;27.65;;;;;;;7.42;100.00;102451.81;5285374;28;20036;-75
2024/03/07 00:11:56;;;;;;;36.53;28.13;;;;;;;7.45;100.00;102448.22;5289873;28;20028;-75
2024/03/07 00:14:28;;;;;;;38.35;28.60;;;;;;;7.41;100.00;102454.50;5289088;28;20038;-75
2024/03/07 00:16:59;;;;;;;38.13;28.67;;;;;;;7.38;100.00;102450.28;5285842;28;20036;-75
2024/03/07 00:19:31;;;;;;;38.13;29.27;;;;;;;7.42;100.00;102448.38;5283064;28;20036;-75
2024/03/07 00:22:03;;;;;;;33.20;27.42;;;;;;;7.43;100.00;102450.91;5287108;28;20024;-75
2024/03/07 00:24:36;;;;;;;35.10;27.70;;;;;;;7.43;100.00;102457.91;5284449;28;20131;-75
2024/03/07 00:27:08;;;;;;;36.55;28.75;;;;;;;7.42;100.00;102451.81;5287734;28;20032;-75
2024/03/07 00:29:40;;;;;;;38.83;28.67;;;;;;;7.41;100.00;102452.75;5285338;28;20679;-75
2024/03/07 00:32:13;;;;;;;39.45;29.55;;;;;;;7.37;100.00;102451.19;5284483;28;20552;-75
2024/03/07 00:34:46;;;;;;;40.10;29.30;;;;;;;7.29;100.00;102435.06;5284732;28;20032;-76
2024/03/07 00:37:18;;;;;;;37.53;28.73;;;;;;;7.40;100.00;102451.06;5286032;28;20036;-75
2024/03/07 00:39:50;;;;;;;36.80;29.13;;;;;;;7.35;100.00;102446.94;5288341;28;20032;-75
2024/03/07 00:42:22;;;;;;;37.35;29.02;;;;;;;7.34;100.00;102446.13;5283301;28;20028;-75
2024/03/07 00:44:54;;;;;;;36.80;28.20;;;;;;;7.28;100.00;102438.59;5269322;28;20035;-76
2024/03/07 00:47:26;;;;;;;37.00;29.75;;;;;;;7.35;100.00;102441.75;5281954;28;20032;-75
2024/03/07 00:49:58;;;;;;;39.97;29.35;;;;;;;7.30;100.00;102449.78;5288418;28;20039;-75
2024/03/07 00:52:30;;;;;;;40.03;28.80;;;;;;;7.28;100.00;102430.78;5288926;28;20036;-76
2024/03/07 00:55:02;;;;;;;34.22;27.60;;;;;;;7.33;100.00;102441.81;5269682;28;20044;-75
2024/03/07 00:57:34;;;;;;;40.10;29.50;;;;;;;7.22;100.00;102428.44;5285116;28;20056;-76
2024/03/07 01:00:13;;;;;;;38.13;28.88;;;;;;;7.27;100.00;102431.66;5288774;28;20031;-76
2024/03/07 01:02:46;;;;;;;39.35;29.08;;;;;;;7.33;100.00;102431.41;5269831;28;20040;-75
2024/03/07 01:05:19;;;;;;;39.50;29.13;;;;;;;7.27;100.00;102422.09;5270403;28;20078;-76
2024/03/07 01:07:51;;;;;;;37.50;27.70;;;;;;;7.26;100.00;102427.38;5285912;28;20034;-76
2024/03/07 01:10:23;;;;;;;39.92;29.25;;;;;;;7.24;100.00;102422.25;5284341;28;21626;-76
2024/03/07 01:12:57;;;;;;;33.80;27.20;;;;;;;7.28;100.00;102420.34;5286563;28;20127;-76
2024/03/07 01:15:29;;;;;;;39.13;28.98;;;;;;;7.27;100.00;102418.63;5289806;28;20024;-76
2024/03/07 01:18:01;;;;;;;36.92;28.27;;;;;;;7.20;100.00;102425.06;5284284;28;20170;-75
2024/03/07 01:20:33;;;;;;;38.78;29.80;;;;;;;7.18;100.00;102419.91;5288003;28;20097;-76
2024/03/07 01:23:05;;;;;;;37.00;28.20;;;;;;;7.22;100.00;102424.06;5286805;28;20493;-76
2024/03/07 01:25:37;;;;;;;38.92;29.67;;;;;;;7.21;100.00;102416.31;5291245;28;20110;-76
2024/03/07 01:28:12;;;;;;;36.55;28.88;;;;;;;7.18;100.00;102413.84;5286945;28;20366;-76
2024/03/07 01:30:44;;;;;;;38.08;29.05;;;;;;;7.16;100.00;102411.31;5288497;28;20032;-76
2024/03/07 01:33:16;;;;;;;39.72;30.15;;;;;;;7.17;100.00;102409.56;5289449;28;20028;-76
2024/03/07 01:35:48;;;;;;;38.65;30.13;;;;;;;7.14;100.00;102410.53;5289276;28;20093;-75
2024/03/07 01:38:20;;;;;;;39.65;29.38;;;;;;;7.12;100.00;102409.75;5287922;28;20032;-76
2024/03/07 01:40:51;;;;;;;42.47;30.77;;;;;;;6.96;100.00;102393.09;5288640;28;20036;-76
2024/03/07 01:43:23;;;;;;;38.53;29.75;;;;;;;7.04;100.00;102399.66;5286644;28;20400;-76
2024/03/07 01:45:58;;;;;;;35.83;28.88;;;;;;;7.03;100.00;102403.19;5287058;28;20036;-76
2024/03/07 01:48:31;;;;;;;38.78;29.58;;;;;;;7.02;100.00;102400.66;5281400;28;20058;-76
2024/03/07 01:51:03;;;;;;;39.25;29.65;;;;;;;7.04;100.00;102398.81;5271468;28;20044;-76
2024/03/07 01:53:36;;;;;;;40.15;30.52;;;;;;;6.94;100.00;102401.00;5289484;28;20066;-76
2024/03/07 01:56:08;;;;;;;38.58;29.00;;;;;;;6.95;100.00;102392.28;5291078;28;20377;-76
2024/03/07 01:58:41;;;;;;;39.83;30.90;;;;;;;6.98;100.00;102391.28;5286568;28;20040;-76
2024/03/07 02:01:15;;;;;;;43.50;32.20;;;;;;;6.88;100.00;102390.00;5287900;28;20039;-76
2024/03/07 02:03:47;;;;;;;42.33;30.77;;;;;;;6.87;100.00;102389.16;5289708;28;20046;-76
2024/03/07 02:06:19;;;;;;;39.92;29.73;;;;;;;6.88;100.00;102390.84;5271312;28;20506;-78
2024/03/07 02:08:51;;;;;;;38.70;30.48;;;;;;;6.88;100.00;102393.44;5281211;28;20040;-76
2024/03/07 02:11:23;;;;;;;39.60;30.58;;;;;;;6.85;100.00;102387.53;5285171;28;20078;-77
2024/03/07 02:13:55;;;;;;;39.60;30.93;;;;;;;6.87;100.00;102380.50;5278117;28;20032;-76
2024/03/07 02:16:27;;;;;;;39.72;30.20;;;;;;;6.86;100.00;102386.59;5285951;28;20051;-76
2024/03/07 02:18:59;;;;;;;40.10;30.45;;;;;;;6.85;100.00;102379.72;5289298;28;20036;-76
2024/03/07 02:21:32;;;;;;;43.13;33.45;;;;;;;6.86;100.00;102387.47;5284225;28;20040;-75
2024/03/07 02:24:04;;;;;;;41.08;31.67;;;;;;;6.86;100.00;102381.41;5284126;28;20023;-75
2024/03/07 02:26:36;;;;;;;44.22;30.88;;;;;;;6.86;100.00;102384.88;5284989;28;20036;-76
2024/03/07 02:29:08;;;;;;;44.40;32.10;;;;;;;6.80;100.00;102377.31;5269045;28;20040;-76
2024/03/07 02:31:41;;;;;;;40.65;31.15;;;;;;;6.84;100.00;102378.88;5288992;28;20032;-76
2024/03/07 02:34:13;;;;;;;41.72;31.63;;;;;;;6.85;100.00;102370.13;5291897;28;20042;-76
2024/03/07 02:36:45;;;;;;;42.80;30.40;;;;;;;6.81;100.00;102368.59;5282642;28;20032;-76
2024/03/07 02:39:17;;;;;;;42.53;30.23;;;;;;;6.74;100.00;102372.38;5287554;28;20094;-76
2024/03/07 02:41:49;;;;;;;39.88;30.63;;;;;;;6.73;100.00;102373.28;5286788;28;20086;-77
2024/03/07 02:44:21;;;;;;;41.08;31.33;;;;;;;6.71;100.00;102364.72;5285505;28;20377;-76
2024/03/07 02:46:54;;;;;;;43.90;32.80;;;;;;;6.69;100.00;102367.38;5269512;28;21150;-76
2024/03/07 02:49:26;;;;;;;42.58;31.60;;;;;;;6.71;100.00;102364.72;5285641;28;20107;-76
2024/03/07 02:51:58;;;;;;;40.33;31.42;;;;;;;6.67;100.00;102361.41;5289735;28;20050;-76
2024/03/07 02:54:32;;;;;;;44.00;32.50;;;;;;;6.64;100.00;102358.94;5287035;28;20031;-76
2024/03/07 02:57:04;;;;;;;47.25;31.80;;;;;;;6.46;100.00;102344.09;5289063;28;20575;-76
2024/03/07 02:59:36;;;;;;;43.42;31.35;;;;;;;6.61;100.00;102360.81;5268318;28;20044;-76
2024/03/07 03:02:08;;;;;;;42.47;33.30;;;;;;;6.46;100.00;102344.94;5284505;28;20124;-76
2024/03/07 03:04:40;;;;;;;45.65;34.88;;;;;;;6.56;100.00;102363.63;5288444;28;20056;-76
2024/03/07 03:07:12;;;;;;;45.83;33.03;;;;;;;6.53;100.00;102359.38;5284830;28;20032;-76
2024/03/07 03:09:44;;;;;;;43.15;32.95;;;;;;;6.53;100.00;102359.38;5282028;28;20553;-76
2024/03/07 03:12:16;;;;;;;44.15;32.80;;;;;;;6.48;100.00;102358.75;5283907;28;20040;-77
2024/03/07 03:14:48;;;;;;;43.13;33.25;;;;;;;6.43;100.00;102345.06;5284103;28;20028;-76
2024/03/07 03:17:21;;;;;;;46.40;33.10;;;;;;;6.51;100.00;102353.38;5287276;28;20032;-76
2024/03/07 03:19:55;;;;;;;44.20;32.77;;;;;;;6.41;100.00;102341.72;5285398;28;20028;-76
2024/03/07 03:22:26;;;;;;;47.42;34.13;;;;;;;6.38;100.00;102341.84;5291526;28;20024;-76
2024/03/07 03:24:58;;;;;;;46.88;33.78;;;;;;;6.41;100.00;102348.69;5287441;28;21911;-76
2024/03/07 03:27:30;;;;;;;44.65;33.15;;;;;;;6.43;100.00;102345.06;5273637;28;20075;-76
2024/03/07 03:30:04;;;;;;;43.40;33.30;;;;;;;6.40;100.00;102349.56;5255600;28;20028;-76
2024/03/07 03:32:36;;;;;;;44.88;32.65;;;;;;;6.34;100.00;102335.91;5283402;28;20036;-76
2024/03/07 03:35:13;;;;;;;43.65;33.72;;;;;;;6.43;100.00;102344.22;5282893;28;20024;-76
2024/03/07 03:37:45;;;;;;;44.25;32.55;;;;;;;6.36;100.00;102338.44;5261081;28;20040;-76
2024/03/07 03:40:18;;;;;;;44.53;33.10;;;;;;;6.32;100.00;102329.06;5263772;28;21503;-76
2024/03/07 03:42:49;;;;;;;43.28;32.53;;;;;;;6.32;100.00;102337.72;5288865;28;20055;-76
2024/03/07 03:45:21;;;;;;;44.08;31.02;;;;;;;6.27;100.00;102328.44;5268354;28;20047;-76
2024/03/07 03:47:54;;;;;;;43.80;31.48;;;;;;;6.27;100.00;102328.44;5283933;28;20050;-76
2024/03/07 03:50:26;;;;;;;43.05;30.98;;;;;;;6.29;100.00;102332.69;5283353;28;20032;-75
2024/03/07 03:52:58;;;;;;;45.50;32.63;;;;;;;6.27;100.00;102342.28;5283163;28;20093;-76
2024/03/07 03:55:32;;;;;;;40.75;31.33;;;;;;;6.29;100.00;102334.44;5283467;28;20039;-76
2024/03/07 03:58:05;;;;;;;44.50;32.47;;;;;;;6.16;100.00;102328.88;5283970;28;20024;-75
2024/03/07 04:00:39;;;;;;;44.17;33.67;;;;;;;6.20;100.00;102338.25;5281707;28;20051;-76
2024/03/07 04:03:11;;;;;;;46.10;31.70;;;;;;;6.20;100.00;102329.59;5284469;28;20090;-76
2024/03/07 04:05:43;;;;;;;49.00;34.25;;;;;;;6.15;100.00;102332.41;5286852;28;20541;-76
2024/03/07 04:08:15;;;;;;;45.92;31.95;;;;;;;6.19;100.00;102333.13;5282320;28;20032;-76
2024/03/07 04:10:47;;;;;;;43.60;32.97;;;;;;;6.16;100.00;102331.50;5283194;28;20897;-77
2024/03/07 04:13:22;;;;;;;45.05;31.88;;;;;;;6.14;100.00;102330.72;5286455;28;20644;-77
2024/03/07 04:15:53;;;;;;;44.35;32.25;;;;;;;6.18;100.00;102326.25;5285754;28;20039;-77
2024/03/07 04:18:26;;;;;;;42.38;31.48;;;;;;;6.18;100.00;102329.69;5265640;28;20032;-77
2024/03/07 04:20:58;;;;;;;43.37;33.00;;;;;;;6.13;100.00;102331.63;5282199;28;20036;-76
2024/03/07 04:23:30;;;;;;;43.55;31.13;;;;;;;6.05;100.00;102329.34;5280544;28;20046;-75
2024/03/07 04:26:02;;;;;;;47.00;33.08;;;;;;;6.02;100.00;102332.09;5284472;28;20933;-76
2024/03/07 04:28:34;;;;;;;45.08;32.40;;;;;;;5.93;100.00;102319.44;5282563;28;20024;-76
2024/03/07 04:31:06;;;;;;;43.88;32.35;;;;;;;6.00;100.00;102327.84;5276433;28;20051;-77
2024/03/07 04:33:38;;;;;;;45.08;32.85;;;;;;;6.04;100.00;102337.22;5282386;28;20039;-78
2024/03/07 04:36:10;;;;;;;43.42;31.83;;;;;;;5.97;100.00;102334.00;5283954;28;20032;-77
2024/03/07 04:38:45;;;;;;;41.67;32.10;;;;;;;5.83;100.00;102318.97;5278700;28;20032;-78
2024/03/07 04:41:17;;;;;;;38.70;31.00;;;;;;;5.95;100.00;102330.66;5283583;28;20050;-78
2024/03/07 04:43:49;;;;;;;42.23;31.40;;;;;;;5.92;100.00;102322.97;5282712;28;20035;-78
2024/03/07 04:46:21;;;;;;;40.97;30.50;;;;;;;5.85;100.00;102322.34;5284349;28;20748;-75
2024/03/07 04:48:53;;;;;;;41.55;31.88;;;;;;;5.80;100.00;102315.66;5259948;28;20608;-75
2024/03/07 04:51:25;;;;;;;45.72;32.33;;;;;;;5.75;100.00;102307.16;5283005;28;20032;-75
2024/03/07 04:53:56;;;;;;;44.03;32.28;;;;;;;5.80;100.00;102323.44;5287914;28;20050;-75
2024/03/07 04:56:28;;;;;;;38.60;29.70;;;;;;;5.83;100.00;102315.50;5287029;28;20036;-75
2024/03/07 04:59:00;;;;;;;40.95;31.08;;;;;;;5.81;100.00;102320.78;5283577;28;20032;-75
2024/03/07 05:01:32;;;;;;;44.17;32.03;;;;;;;5.80;100.00;102324.28;5268136;28;20048;-75
2024/03/07 05:04:05;;;;;;;44.15;31.13;;;;;;;5.79;100.00;102326.94;5278076;28;20043;-75
2024/03/07 05:06:37;;;;;;;42.97;30.92;;;;;;;5.81;100.00;102325.13;5280266;28;21226;-75
2024/03/07 05:09:21;;;;;;;41.35;31.20;;;;;;;5.74;100.00;102315.88;5278794;28;20036;-75
2024/03/07 05:11:53;;;;;;;39.40;30.80;;;;;;;5.81;100.00;102319.94;5282425;28;20039;-75
2024/03/07 05:14:25;;;;;;;41.95;31.98;;;;;;;5.74;100.00;102321.09;5285835;28;20024;-75
2024/03/07 05:17:08;;;;;;;42.85;30.38;;;;;;;5.71;100.00;102316.84;5286415;28;20036;-75
2024/03/07 05:19:40;;;;;;;41.43;30.67;;;;;;;5.64;100.00;102302.41;5281681;28;20506;-75
2024/03/07 05:22:15;;;;;;;41.45;30.23;;;;;;;5.71;100.00;102318.59;5282166;28;20036;-75
2024/03/07 05:24:47;;;;;;;42.35;31.05;;;;;;;5.70;100.00;102317.75;5283782;28;20031;-75
2024/03/07 05:27:19;;;;;;;40.08;31.67;;;;;;;5.66;100.00;102311.00;5283983;28;20040;-75
2024/03/07 05:29:51;;;;;;;41.05;31.15;;;;;;;5.65;100.00;102319.72;5287262;28;20039;-75
2024/03/07 05:32:25;;;;;;;42.15;31.17;;;;;;;5.57;100.00;102308.78;5288456;28;20036;-75
2024/03/07 05:34:57;;;;;;;42.25;31.15;;;;;;;5.55;100.00;102316.63;5284465;28;20870;-75
2024/03/07 05:37:29;;;;;;;40.53;30.80;;;;;;;5.57;100.00;102313.97;5287148;28;20036;-76
2024/03/07 05:40:03;;;;;;;41.03;29.38;;;;;;;5.56;100.00;102320.91;5276305;28;20150;-76
2024/03/07 05:42:35;;;;;;;40.88;30.63;;;;;;;5.57;100.00;102317.44;5285976;28;20028;-76
2024/03/07 05:45:07;;;;;;;38.90;31.00;;;;;;;5.53;100.00;102323.66;5284234;28;20387;-76
2024/03/07 05:47:39;;;;;;;42.90;31.42;;;;;;;5.52;100.00;102314.16;5287421;28;20036;-76
2024/03/07 05:50:13;;;;;;;39.90;30.60;;;;;;;5.49;100.00;102321.22;5286790;28;20574;-76
2024/03/07 05:52:45;;;;;;;41.05;30.50;;;;;;;5.53;100.00;102320.19;5281122;28;20044;-76
2024/03/07 05:55:18;;;;;;;42.65;32.88;;;;;;;5.55;100.00;102321.00;5283884;28;20055;-76
2024/03/07 05:57:50;;;;;;;42.72;30.88;;;;;;;5.54;100.00;102325.34;5269034;28;20044;-76
2024/03/07 06:00:26;;;;;;;38.92;30.55;;;;;;;5.47;100.00;102323.06;5283281;28;20116;-76
2024/03/07 06:02:58;;;;;;;46.25;32.78;;;;;;;5.46;100.00;102324.81;5289894;28;20047;-74
2024/03/07 06:05:31;;;;;;;40.90;31.58;;;;;;;5.44;100.00;102321.41;5255662;28;20612;-75
2024/03/07 06:08:06;;;;;;;47.80;31.67;;;;;;;5.49;100.00;102326.41;5268320;28;20123;-75
2024/03/07 06:10:40;;;;;;;41.75;31.15;;;;;;;5.44;100.00;102313.59;5280009;28;20028;-75
2024/03/07 06:13:16;;;;;;;41.13;31.73;;;;;;;5.52;100.00;102319.34;5259411;28;20040;-75
2024/03/07 06:15:47;;;;;;;41.33;30.73;;;;;;;5.44;100.00;102318.81;5278763;28;20032;-75
2024/03/07 06:18:19;;;;;;;44.72;30.20;;;;;;;5.34;100.00;102314.88;5284143;28;20477;-75
2024/03/07 06:20:51;;;;;;;43.13;31.20;;;;;;;5.37;100.00;102325.16;5283142;28;20036;-75
2024/03/07 06:23:24;;;;;;;41.78;31.92;;;;;;;5.32;100.00;102314.09;5287139;28;20028;-75
2024/03/07 06:25:58;;;;;;;44.70;31.88;;;;;;;5.30;100.00;102313.31;5287155;28;20035;-75
2024/03/07 06:28:30;;;;;;;42.60;32.47;;;;;;;5.26;100.00;102315.16;5285463;28;20042;-75
2024/03/07 06:31:07;;;;;;;42.80;31.77;;;;;;;5.31;100.00;102315.00;5285145;28;20488;-75
2024/03/07 06:33:39;;;;;;;43.85;32.63;;;;;;;5.29;100.00;102311.63;5267360;28;20047;-75
2024/03/07 06:36:11;;;;;;;43.75;31.73;;;;;;;5.26;100.00;102312.56;5266588;28;20040;-75
2024/03/07 06:38:43;;;;;;;41.55;32.33;;;;;;;5.35;100.00;102314.00;5281487;28;20521;-75
2024/03/07 06:41:15;;;;;;;41.63;32.47;;;;;;;5.36;100.00;102318.28;5286362;28;20042;-75
2024/03/07 06:43:49;;;;;;;41.90;32.63;;;;;;;5.37;100.00;102312.16;5266575;28;20051;-75
2024/03/07 06:46:21;;;;;;;40.20;31.38;;;;;;;5.33;100.00;102314.03;5264498;28;20041;-75
2024/03/07 06:48:54;;;;;;;43.20;32.22;;;;;;;5.36;100.00;102313.91;5278571;28;20116;-75
2024/03/07 06:51:25;;;;;;;42.47;32.20;;;;;;;5.33;100.00;102308.00;5283572;28;20028;-75
2024/03/07 06:53:58;;;;;;;54.90;33.65;;;;;;;5.30;100.00;102297.72;5284753;28;20078;-75
2024/03/07 06:56:30;;;;;;;45.35;32.08;;;;;;;5.41;100.00;102311.13;5284064;28;20040;-74
2024/03/07 06:59:04;;;;;;;46.03;34.25;;;;;;;5.38;100.00;102308.69;5274483;28;20044;-75
2024/03/07 07:01:36;;;;;;;43.25;33.40;;;;;;;5.35;100.00;102314.00;5267865;28;20655;-75
2024/03/07 07:04:09;;;;;;;48.40;35.60;;;;;;;5.47;100.00;102313.50;5289202;28;20040;-75
2024/03/07 07:06:42;;;;;;;44.20;33.75;;;;;;;5.36;100.00;102307.88;5285753;28;20031;-75
2024/03/07 07:09:18;;;;;;;44.05;33.70;;;;;;;5.44;100.00;102313.59;5281022;28;20047;-75
2024/03/07 07:11:50;;;;;;;41.83;32.80;;;;;;;5.45;100.00;102307.50;5278202;28;20394;-74
2024/03/07 07:14:22;;;;;;;45.42;34.20;;;;;;;5.45;100.00;102311.84;5284122;28;20036;-75
2024/03/07 07:16:55;;;;;;;45.13;33.90;;;;;;;5.48;100.00;102309.97;5264865;28;20036;-75
2024/03/07 07:19:27;;;;;;;43.38;34.88;;;;;;;5.50;100.00;102308.19;5282042;28;20028;-75
2024/03/07 07:22:01;;;;;;;41.90;33.22;;;;;;;5.50;100.00;102309.94;5262564;28;20048;-75
2024/03/07 07:24:34;;;;;;;;;;;;;;;6.09;100.00;102307.47;5265295;28;20464;-75
2024/03/07 07:27:07;;;;;;;43.23;33.40;;;;;;;5.66;100.00;102311.00;5262631;28;19935;-75
2024/03/07 07:29:39;;;;;;;45.67;34.35;;;;;;;5.26;100.00;102246.78;5273271;28;20763;-75
2024/03/07 07:32:12;;;;;;;44.58;34.05;;;;;;;5.65;100.00;102305.88;5261136;28;20052;-75
2024/03/07 07:34:44;;;;;;;46.45;34.42;;;;;;;5.66;100.00;102302.34;5278858;28;20040;-75
2024/03/07 07:37:16;;;;;;;44.10;33.90;;;;;;;5.71;100.00;102309.03;5282157;28;20218;-75
2024/03/07 07:39:48;;;;;;;45.60;33.80;;;;;;;5.70;100.00;102299.56;5285822;28;20035;-75
2024/03/07 07:42:20;;;;;;;44.42;33.63;;;;;;;5.82;100.00;102306.00;5266070;28;20498;-75
2024/03/07 07:44:52;;;;;;;42.92;33.30;;;;;;;5.88;100.00;102305.78;5285690;28;20042;-75
2024/03/07 07:47:24;;;;;;;42.83;34.13;;;;;;;5.84;100.00;102291.19;5280283;28;20332;-75
2024/03/07 07:49:56;;;;;;;43.97;34.58;;;;;;;5.96;100.00;102313.28;5279231;28;20030;-75
2024/03/07 07:52:28;;;;;;;42.88;33.53;;;;;;;5.99;100.00;102298.41;5286994;28;20038;-75
2024/03/07 07:55:00;;;;;;;43.17;32.30;;;;;;;6.04;100.00;102306.84;5286635;28;20024;-75
2024/03/07 07:57:31;;;;;;;45.08;33.00;;;;;;;6.00;100.00;102291.44;5265019;28;21382;-75
2024/03/07 08:00:08;;;;;;;45.20;34.80;;;;;;;6.15;100.00;102302.94;5286457;28;20032;-75
2024/03/07 08:02:40;;;;;;;42.88;32.42;;;;;;;6.19;100.00;102307.09;5286185;28;20035;-75
2024/03/07 08:05:16;;;;;;;43.22;31.50;;;;;;;6.24;100.00;102303.38;5286613;28;20424;-75
2024/03/07 08:07:50;;;;;;;41.92;31.45;;;;;;;6.29;100.00;102300.59;5266195;28;20040;-75
2024/03/07 08:10:26;;;;;;;41.53;31.40;;;;;;;6.40;100.00;102303.53;5265936;28;20040;-75
2024/03/07 08:12:59;;;;;;;43.63;32.65;;;;;;;6.38;100.00;102299.34;5287021;28;20477;-75
2024/03/07 08:15:31;;;;;;;40.45;31.92;;;;;;;6.41;100.00;102291.41;5274010;28;20032;-75
2024/03/07 08:18:08;;;;;;;39.90;30.95;;;;;;;6.45;100.00;102296.41;5282579;28;20032;-75
2024/03/07 08:20:40;;;;;;;38.40;31.38;;;;;;;6.50;100.00;102298.78;5283136;28;20036;-75
2024/03/07 08:23:12;;;;;;;41.22;31.08;;;;;;;6.60;100.00;102302.69;5279289;28;20122;-75
2024/03/07 08:25:44;;;;;;;37.25;30.65;;;;;;;6.62;100.00;102290.44;5271869;28;20049;-75
2024/03/07 08:28:16;;;;;;;38.58;30.52;;;;;;;6.74;100.00;102294.22;5285080;28;20413;-75
2024/03/07 08:30:48;;;;;;;36.13;29.67;;;;;;;6.78;100.00;102294.06;5289017;28;20038;-75
2024/03/07 08:33:21;;;;;;;38.33;30.08;;;;;;;6.78;100.00;102287.97;5289084;28;20032;-75
2024/03/07 08:35:53;;;;;;;33.80;28.30;;;;;;;6.82;100.00;102285.19;5268137;28;20359;-75
2024/03/07 08:38:25;;;;;;;36.92;30.52;;;;;;;6.87;100.00;102291.94;5285937;28;20043;-75
2024/03/07 08:40:57;;;;;;;34.85;28.80;;;;;;;6.88;100.00;102294.47;5287632;28;20043;-75
2024/03/07 08:43:29;;;;;;;34.53;28.95;;;;;;;6.93;100.00;102276.88;5288622;28;20077;-75
2024/03/07 08:46:01;;;;;;;35.65;27.65;;;;;;;7.00;100.00;102283.47;5287124;28;20046;-75
2024/03/07 08:48:33;;;;;;;36.00;28.70;;;;;;;7.08;100.00;102283.09;5270475;28;20047;-75
2024/03/07 08:51:05;;;;;;;30.52;25.30;;;;;;;7.19;100.00;102283.44;5290717;28;20279;-75
2024/03/07 08:53:37;;;;;;;33.40;27.00;;;;;;;7.31;100.00;102284.63;5290967;28;20036;-75
2024/03/07 08:56:08;;;;;;;33.90;26.88;;;;;;;7.38;100.00;102282.56;5287534;28;20040;-75
2024/03/07 08:58:40;;;;;;;31.83;26.90;;;;;;;7.46;100.00;102270.00;5290053;28;20035;-75
2024/03/07 09:01:12;;;;;;;30.05;26.27;;;;;;;7.48;100.00;102263.78;5291343;28;20032;-75
2024/03/07 09:03:44;;;;;;;30.98;25.77;;;;;;;7.54;100.00;102255.69;5285801;28;20041;-75
2024/03/07 09:06:16;;;;;;;31.40;25.23;;;;;;;7.64;100.00;102261.25;5261386;28;20044;-75
2024/03/07 09:08:48;;;;;;;28.42;24.45;;;;;;;7.76;100.00;102267.63;5270819;28;20036;-75
2024/03/07 09:11:20;;;;;;;29.80;24.50;;;;;;;7.84;100.00;102265.50;5270848;28;20074;-75
2024/03/07 09:13:52;;;;;;;29.77;24.85;;;;;;;7.84;100.00;102247.25;5271999;28;20843;-75
2024/03/07 09:16:24;;;;;;;28.85;25.13;;;;;;;7.94;100.00;102253.66;5289711;28;20033;-76
2024/03/07 09:18:56;;;;;;;28.58;23.55;;;;;;;8.08;100.00;102262.56;5289372;28;20028;-75
2024/03/07 09:21:29;;;;;;;27.02;23.88;;;;;;;8.13;100.00;102250.94;5291368;28;20039;-76
2024/03/07 09:24:01;;;;;;;26.17;22.77;;;;;;;8.28;100.00;102255.38;5291013;28;20038;-76
2024/03/07 09:26:33;;;;;;;27.33;23.08;;;;;;;8.31;100.00;102245.69;5289900;28;20036;-76
2024/03/07 09:29:06;;;;;;;27.43;21.40;;;;;;;8.45;100.00;102251.91;5288449;28;20038;-76
2024/03/07 09:31:40;;;;;;;26.83;23.33;;;;;;;8.59;100.00;102250.31;5291135;28;20032;-76
2024/03/07 09:34:13;;;;;;;26.48;22.65;;;;;;;8.66;100.00;102249.88;5289177;28;20032;-76
2024/03/07 09:36:45;;;;;;;25.40;21.88;;;;;;;8.74;100.00;102255.53;5290813;28;20418;-76
2024/03/07 09:39:21;;;;;;;27.52;22.17;;;;;;;8.83;100.00;102254.22;5288992;28;20047;-76
2024/03/07 09:41:55;;;;;;;21.00;18.80;;;;;;;8.87;100.00;102254.91;5289525;28;20043;-76
2024/03/07 09:44:28;;;;;;;25.55;19.10;;;;;;;8.78;100.00;102223.09;5282213;28;20021;-76
2024/03/07 09:47:02;;;;;;;22.10;19.67;;;;;;;8.97;100.00;102248.22;5275366;28;20044;-75
2024/03/07 09:49:38;;;;;;;22.90;17.90;;;;;;;8.95;100.00;102235.25;5286586;28;20036;-76
2024/03/07 09:52:15;;;;;;;19.80;16.75;;;;;;;9.11;96.25;102239.59;5283535;28;20176;-76
2024/03/07 09:54:47;;;;;;;22.35;19.25;;;;;;;9.11;97.68;102226.53;5286544;28;20036;-76
2024/03/07 09:57:19;;;;;;;21.35;18.42;;;;;;;9.20;93.89;102252.16;5289622;28;20035;-76
2024/03/07 09:59:54;;;;;;;21.25;16.33;;;;;;;9.23;94.51;102244.13;5281492;28;20032;-76
2024/03/07 10:02:26;;;;;;;22.40;17.27;;;;;;;9.26;96.94;102247.41;5288872;28;20023;-76
2024/03/07 10:04:59;;;;;;;17.35;15.55;;;;;;;9.39;91.08;102239.69;5288989;28;20052;-76
2024/03/07 10:07:31;;;;;;;21.38;17.27;;;;;;;9.47;93.94;102239.25;5284197;28;20036;-76
2024/03/07 10:10:09;;;;;;;19.33;17.17;;;;;;;9.41;93.57;102227.41;5280325;28;20359;-76
2024/03/07 10:12:42;;;;;;;19.15;16.95;;;;;;;9.52;90.22;102239.03;5284577;28;20039;-76
2024/03/07 10:15:15;;;;;;;20.30;17.00;;;;;;;9.62;89.47;102234.91;5286557;28;20048;-76
2024/03/07 10:17:46;;;;;;;20.85;17.95;;;;;;;9.67;89.48;102238.13;5287681;28;20585;-76
2024/03/07 10:20:22;;;;;;;20.48;17.00;;;;;;;9.72;90.11;102236.06;5282494;28;20044;-76
2024/03/07 10:22:55;;;;;;;20.42;17.40;;;;;;;9.70;90.17;102236.16;5289168;28;20035;-76
2024/03/07 10:25:27;;;;;;;24.35;17.95;;;;;;;9.68;88.42;102219.69;5285640;28;20036;-76
2024/03/07 10:28:00;;;;;;;21.42;17.83;;;;;;;9.68;88.98;102234.56;5285912;28;20039;-76
2024/03/07 10:30:39;;;;;;;;;;;;;;;10.36;89.86;102220.91;5273093;28;20285;-74
2024/03/07 10:33:12;;;;;;;19.42;17.38;;;;;;;9.95;89.11;102221.63;5279501;28;19924;-74
2024/03/07 10:35:49;;;;;;;;;;;;;;;10.64;91.34;102214.75;5280842;28;20032;-74
2024/03/07 10:38:21;;;;;;;19.17;17.13;;;;;;;10.30;87.72;102226.50;5276288;28;20405;-74
2024/03/07 10:40:55;;;;;;;18.70;16.52;;;;;;;10.46;84.09;102216.78;5263772;28;20052;-74
2024/03/07 10:43:29;;;;;;;18.73;16.02;;;;;;;10.54;84.07;102221.53;5271154;28;20497;-75
2024/03/07 10:46:06;;;;;;;20.05;17.35;;;;;;;10.56;82.11;102211.78;5284431;28;20452;-74
2024/03/07 10:48:40;;;;;;;20.00;16.15;;;;;;;10.58;80.52;102218.63;5271620;28;20036;-74
2024/03/07 10:51:28;;;;;;;21.05;17.90;;;;;;;10.63;80.42;102202.59;5286120;28;20035;-75
2024/03/07 10:54:22;;;;;;;18.90;16.90;;;;;;;10.85;81.17;102213.41;5259058;28;20059;-74
2024/03/07 10:57:39;;;;;;;19.63;17.42;;;;;;;11.21;84.60;102206.69;5283380;28;20040;-74
2024/03/07 11:00:30;;;;;;;19.73;17.00;;;;;;;10.73;78.38;102208.13;5150164;28;20038;-75
2024/03/07 11:03:06;;;;;;;20.10;17.20;;;;;;;10.57;75.39;102209.09;5285016;28;20035;-75
2024/03/07 11:05:39;;;;;;;20.88;17.83;;;;;;;10.45;75.80;102210.72;5280900;28;20797;-75
2024/03/07 11:08:12;;;;;;;19.98;17.05;;;;;;;10.40;77.11;102202.28;5277765;28;20036;-75
2024/03/07 11:10:47;;;;;;;21.13;17.48;;;;;;;10.39;76.87;102202.38;5283276;28;20031;-75
2024/03/07 11:13:19;;;;;;;22.75;18.25;;;;;;;10.31;76.54;102204.63;5283520;28;20036;-74
2024/03/07 11:15:52;;;;;;;26.70;18.38;;;;;;;10.37;77.28;102204.25;5273378;28;20646;-75
2024/03/07 11:18:27;;;;;;;20.20;17.15;;;;;;;10.28;76.61;102195.19;5283538;28;20095;-76
2024/03/07 11:20:58;;;;;;;21.02;17.63;;;;;;;10.33;76.75;102193.09;5288106;28;20042;-76
2024/03/07 11:23:33;;;;;;;20.77;18.38;;;;;;;10.26;79.65;102186.56;5289011;28;20028;-76
2024/03/07 11:26:09;;;;;;;21.42;17.63;;;;;;;10.24;77.60;102180.56;5270012;28;20054;-76
2024/03/07 11:28:42;;;;;;;19.33;17.25;;;;;;;10.27;74.49;102196.13;5284991;28;20036;-76
2024/03/07 11:31:24;;;;;;;21.20;18.25;;;;;;;10.53;77.10;102181.41;5290102;28;20016;-75
2024/03/07 11:34:14;;;;;;;19.05;17.05;;;;;;;10.71;75.10;102171.50;5287829;28;20797;-76
2024/03/07 11:36:49;;;;;;;21.83;17.48;;;;;;;10.58;75.72;102163.59;5287759;28;20059;-76
2024/03/07 11:39:43;;;;;;;21.45;16.88;;;;;;;11.03;77.03;102161.56;5282418;28;20036;-76